createdAt,value
2023-04-10T00:00:38.409Z,7.30
2023-04-10T00:05:40.752Z,7.30
2023-04-10T00:10:43.141Z,7.20
2023-04-10T00:15:45.544Z,7.20
2023-04-10T00:20:47.770Z,7.10
2023-04-10T00:25:50.063Z,7.10
2023-04-10T00:30:52.342Z,7.20
2023-04-10T00:35:54.514Z,7.20
2023-04-10T00:40:56.735Z,7.20
2023-04-10T00:45:59.532Z,7.20
2023-04-10T00:51:02.078Z,7.10
2023-04-10T00:56:04.666Z,7.10
2023-04-10T01:01:08.668Z,7.10
2023-04-10T01:06:17.892Z,7.10
2023-04-10T01:11:40.197Z,7.10
2023-04-10T01:16:51.827Z,7.20
2023-04-10T01:21:56.178Z,7.20
2023-04-10T01:27:04.306Z,7.20
2023-04-10T01:32:13.826Z,7.20
2023-04-10T01:37:22.201Z,7.10
2023-04-10T01:42:27.045Z,7.10
2023-04-10T01:47:30.376Z,7.10
2023-04-10T01:52:34.184Z,7.10
2023-04-10T01:57:49.688Z,7.20
2023-04-10T02:02:53.815Z,7.10
2023-04-10T02:08:28.438Z,7.10
2023-04-10T02:13:32.783Z,7.00
2023-04-10T02:18:36.875Z,7.00
2023-04-10T02:23:39.753Z,6.90
2023-04-10T02:28:41.968Z,6.80
2023-04-10T02:33:44.196Z,6.70
2023-04-10T02:38:47.020Z,6.70
2023-04-10T02:43:49.289Z,6.70
2023-04-10T02:48:54.243Z,6.60
2023-04-10T02:53:56.541Z,6.60
2023-04-10T02:59:06.237Z,6.60
2023-04-10T03:04:09.743Z,6.50
2023-04-10T03:09:15.504Z,6.40
2023-04-10T03:14:18.264Z,6.40
2023-04-10T03:19:20.727Z,6.40
2023-04-10T03:24:22.921Z,6.30
2023-04-10T03:29:25.194Z,6.20
2023-04-10T03:34:27.848Z,6.20
2023-04-10T03:39:30.140Z,6.30
2023-04-10T03:44:32.266Z,6.30
2023-04-10T03:49:34.454Z,6.30
2023-04-10T03:54:41.208Z,6.20
2023-04-10T03:59:50.364Z,6.30
2023-04-10T04:04:53.577Z,6.30
2023-04-10T04:10:15.918Z,6.30
2023-04-10T04:15:26.943Z,6.30
2023-04-10T04:20:46.498Z,6.30
2023-04-10T04:26:14.796Z,6.40
2023-04-10T04:31:36.902Z,6.30
2023-04-10T04:36:45.372Z,6.20
2023-04-10T04:41:55.974Z,6.00
2023-04-10T04:47:18.495Z,6.00
2023-04-10T04:52:40.910Z,6.00
2023-04-10T04:57:56.173Z,6.00
2023-04-10T05:03:21.558Z,6.10
2023-04-10T05:08:57.037Z,6.30
2023-04-10T05:13:59.912Z,6.40
2023-04-10T05:19:11.571Z,6.50
2023-04-10T05:24:28.569Z,6.60
2023-04-10T05:29:58.675Z,6.70
2023-04-10T05:35:36.228Z,6.70
2023-04-10T05:40:48.504Z,6.90
2023-04-10T05:46:12.019Z,6.90
2023-04-10T05:51:32.725Z,7.10
2023-04-10T05:56:54.815Z,7.40
2023-04-10T06:02:12.813Z,7.60
2023-04-10T06:07:15.388Z,8.00
2023-04-10T06:12:17.665Z,8.20
2023-04-10T06:17:21.825Z,8.30
2023-04-10T06:22:24.241Z,8.50
2023-04-10T06:27:27.377Z,8.70
2023-04-10T06:32:29.758Z,8.90
2023-04-10T06:37:33.069Z,9.10
2023-04-10T06:42:38.382Z,9.20
2023-04-10T06:47:49.595Z,9.30
2023-04-10T06:52:53.413Z,9.50
2023-04-10T06:57:56.675Z,9.80
2023-04-10T07:02:59.008Z,10.00
2023-04-10T07:08:01.416Z,10.10
2023-04-10T07:13:03.637Z,10.30
2023-04-10T07:18:06.444Z,10.50
2023-04-10T07:23:08.673Z,10.70
2023-04-10T07:28:10.994Z,10.90
2023-04-10T07:33:13.317Z,11.30
2023-04-10T07:38:16.730Z,11.60
2023-04-10T07:43:18.903Z,11.80
2023-04-10T07:48:21.409Z,12.00
2023-04-10T07:53:23.594Z,12.20
2023-04-10T07:58:25.799Z,12.50
2023-04-10T08:03:28.656Z,12.80
2023-04-10T08:08:30.984Z,13.10
2023-04-10T08:13:33.400Z,13.30
2023-04-10T08:18:35.537Z,13.80
2023-04-10T08:23:37.724Z,14.20
2023-04-10T08:28:40.046Z,14.50
2023-04-10T08:33:42.298Z,14.60
2023-04-10T08:38:45.598Z,14.90
2023-04-10T08:43:47.936Z,14.80
2023-04-10T08:49:01.545Z,15.10
2023-04-10T08:54:10.918Z,14.80
2023-04-10T08:59:13.396Z,14.90
2023-04-10T09:04:17.324Z,15.40
2023-04-10T09:09:19.980Z,16.70
2023-04-10T09:14:23.946Z,17.30
2023-04-10T09:19:33.663Z,17.20
2023-04-10T09:24:40.329Z,17.70
2023-04-10T09:29:45.193Z,18.40
2023-04-10T09:34:56.973Z,18.70
2023-04-10T09:39:59.464Z,18.80
2023-04-10T09:45:02.056Z,19.30
2023-04-10T09:50:04.556Z,19.80
2023-04-10T09:55:08.918Z,19.80
2023-04-10T10:00:14.306Z,19.20
2023-04-10T10:05:17.045Z,20.50
2023-04-10T10:10:19.362Z,20.70
2023-04-10T10:15:21.625Z,21.10
2023-04-10T10:20:26.673Z,20.40
2023-04-10T10:25:29.605Z,19.30
2023-04-10T10:30:35.832Z,19.20
2023-04-10T10:35:38.140Z,18.60
2023-04-10T10:40:52.559Z,18.70
2023-04-10T10:46:16.004Z,18.30
2023-04-10T10:51:18.218Z,18.20
2023-04-10T10:56:22.853Z,18.30
2023-04-10T11:01:25.319Z,18.50
2023-04-10T11:06:51.397Z,19.00
2023-04-10T11:12:00.345Z,19.20
2023-04-10T11:17:02.629Z,18.60
2023-04-10T11:22:08.446Z,17.90
2023-04-10T11:27:45.791Z,18.10
2023-04-10T11:32:51.013Z,18.00
2023-04-10T11:38:07.870Z,17.90
2023-04-10T11:43:16.425Z,19.20
2023-04-10T11:48:18.648Z,20.50
2023-04-10T11:53:24.636Z,20.50
2023-04-10T11:58:28.881Z,21.20
2023-04-10T12:03:44.524Z,20.80
2023-04-10T12:08:51.574Z,22.30
2023-04-10T12:13:55.407Z,21.10
2023-04-10T12:18:57.961Z,21.10
2023-04-10T12:24:00.386Z,21.10
2023-04-10T12:29:02.844Z,20.50
2023-04-10T12:34:07.963Z,19.80
2023-04-10T12:39:23.463Z,20.30
2023-04-10T12:44:25.919Z,20.30
2023-04-10T12:49:31.039Z,19.60
2023-04-10T12:54:37.466Z,19.50
2023-04-10T12:59:42.741Z,19.80
2023-04-10T13:04:45.006Z,19.50
2023-04-10T13:09:47.363Z,19.80
2023-04-10T13:14:49.611Z,19.80
2023-04-10T13:19:52.245Z,19.40
2023-04-10T13:24:54.534Z,19.80
2023-04-10T13:29:56.777Z,20.00
2023-04-10T13:34:59.086Z,19.50
2023-04-10T13:40:01.306Z,19.30
2023-04-10T13:45:04.363Z,18.60
2023-04-10T13:50:07.165Z,18.10
2023-04-10T13:55:10.116Z,18.20
2023-04-10T14:00:12.883Z,18.70
2023-04-10T14:05:15.074Z,19.30
2023-04-10T14:10:17.279Z,19.10
2023-04-10T14:15:19.539Z,18.80
2023-04-10T14:20:21.801Z,18.90
2023-04-10T14:25:24.049Z,18.70
2023-04-10T14:30:30.987Z,18.90
2023-04-10T14:35:33.287Z,19.00
2023-04-10T14:40:36.353Z,18.90
2023-04-10T14:45:38.813Z,18.70
2023-04-10T14:50:41.042Z,18.60
2023-04-10T14:55:43.236Z,18.40
2023-04-10T15:00:45.673Z,18.30
2023-04-10T15:05:47.860Z,17.90
2023-04-10T15:10:51.317Z,17.90
2023-04-10T15:15:54.195Z,17.80
2023-04-10T15:20:56.439Z,17.80
2023-04-10T15:25:58.824Z,17.80
2023-04-10T15:31:01.062Z,17.80
2023-04-10T15:36:03.713Z,17.60
2023-04-10T15:41:10.722Z,17.60
2023-04-10T15:46:14.302Z,17.40
2023-04-10T15:51:16.707Z,17.40
2023-04-10T15:56:18.919Z,17.30
2023-04-10T16:01:21.238Z,17.20
2023-04-10T16:06:26.117Z,17.30
2023-04-10T16:11:29.081Z,17.20
2023-04-10T16:16:31.337Z,17.20
2023-04-10T16:21:33.612Z,17.10
2023-04-10T16:26:36.169Z,17.10
2023-04-10T16:31:38.526Z,17.00
2023-04-10T16:36:40.942Z,16.90
2023-04-10T16:41:43.769Z,16.80
2023-04-10T16:46:46.148Z,16.80
2023-04-10T16:51:49.730Z,16.70
2023-04-10T16:56:52.333Z,16.70
2023-04-10T17:01:54.854Z,16.60
2023-04-10T17:06:57.673Z,16.20
2023-04-10T17:12:00.229Z,16.20
2023-04-10T17:17:03.100Z,16.30
2023-04-10T17:22:15.680Z,16.20
2023-04-10T17:27:18.321Z,16.10
2023-04-10T17:32:20.707Z,16.00
2023-04-10T17:37:23.248Z,16.00
2023-04-10T17:42:27.543Z,16.00
2023-04-10T17:47:30.210Z,15.90
2023-04-10T17:52:32.607Z,15.90
2023-04-10T17:57:35.317Z,15.90
2023-04-10T18:02:37.840Z,15.90
2023-04-10T18:07:40.350Z,15.90
2023-04-10T18:12:42.779Z,15.90
2023-04-10T18:17:45.185Z,15.90
2023-04-10T18:22:48.684Z,15.90
2023-04-10T18:28:13.038Z,15.90
2023-04-10T18:33:20.743Z,15.90
2023-04-10T18:38:23.786Z,15.90
2023-04-10T18:43:27.853Z,15.80
2023-04-10T18:48:30.664Z,15.70
2023-04-10T18:53:33.098Z,15.80
2023-04-10T18:58:35.852Z,15.80
2023-04-10T19:03:38.775Z,15.40
2023-04-10T19:08:41.231Z,15.00
2023-04-10T19:13:43.512Z,14.90
2023-04-10T19:18:49.763Z,14.80
2023-04-10T19:23:52.411Z,14.30
2023-04-10T19:28:55.223Z,13.70
2023-04-10T19:33:57.883Z,13.30
2023-04-10T19:39:00.295Z,12.70
2023-04-10T19:44:02.693Z,12.30
2023-04-10T19:49:05.696Z,12.10
2023-04-10T19:54:08.204Z,11.90
2023-04-10T19:59:11.048Z,11.90
2023-04-10T20:04:14.168Z,11.90
2023-04-10T20:09:16.953Z,11.80
2023-04-10T20:14:19.669Z,11.70
2023-04-10T20:19:21.976Z,11.50
2023-04-10T20:24:24.385Z,11.10
2023-04-10T20:29:26.886Z,10.80
2023-04-10T20:34:29.222Z,10.70
2023-04-10T20:39:37.963Z,10.60
2023-04-10T20:44:40.362Z,10.60
2023-04-10T20:49:42.770Z,10.50
2023-04-10T20:54:45.143Z,10.60
2023-04-10T20:59:47.404Z,10.50
2023-04-10T21:04:50.944Z,10.60
2023-04-10T21:09:53.373Z,10.50
2023-04-10T21:14:55.701Z,10.60
2023-04-10T21:19:59.024Z,10.50
2023-04-10T21:25:01.362Z,10.50
2023-04-10T21:30:04.042Z,10.60
2023-04-10T21:35:07.003Z,10.60
2023-04-10T21:40:09.999Z,10.60
2023-04-10T21:45:13.426Z,10.60
2023-04-10T21:50:15.980Z,10.70
2023-04-10T21:55:18.467Z,10.60
2023-04-10T22:00:22.824Z,10.70
2023-04-10T22:05:25.885Z,10.60
2023-04-10T22:10:28.587Z,10.60
2023-04-10T22:15:31.243Z,10.70
2023-04-10T22:20:33.822Z,10.60
2023-04-10T22:25:38.626Z,10.60
2023-04-10T22:30:41.279Z,10.50
2023-04-10T22:35:43.821Z,10.50
2023-04-10T22:40:46.336Z,10.50
2023-04-10T22:45:48.645Z,10.50
2023-04-10T22:50:50.844Z,10.50
2023-04-10T22:55:52.997Z,10.60
2023-04-10T23:00:55.152Z,10.60
2023-04-10T23:05:57.312Z,10.60
2023-04-10T23:10:59.765Z,10.50
2023-04-10T23:16:02.238Z,10.60
2023-04-10T23:21:07.103Z,10.50
2023-04-10T23:26:11.607Z,10.50
2023-04-10T23:31:13.884Z,10.50
2023-04-10T23:36:16.121Z,10.50
2023-04-10T23:41:18.404Z,10.50
2023-04-10T23:46:20.626Z,10.50
2023-04-10T23:51:22.833Z,10.50
2023-04-10T23:56:29.331Z,10.40
